sensor_id;sensor_type;location;lat;lon;timestamp;temperature;humidity
56308;DHT22;42217;50.422;7.210;2023-04-25T00:00:52;5.40;99.90
56308;DHT22;42217;50.422;7.210;2023-04-25T00:03:18;5.40;99.90
56308;DHT22;42217;50.422;7.210;2023-04-25T00:05:44;5.50;99.90
56308;DHT22;42217;50.422;7.210;2023-04-25T00:08:11;5.60;99.90
56308;DHT22;42217;50.422;7.210;2023-04-25T00:10:36;5.60;99.90
56308;DHT22;42217;50.422;7.210;2023-04-25T00:13:02;5.50;99.90
56308;DHT22;42217;50.422;7.210;2023-04-25T00:15:28;5.50;99.90
56308;DHT22;42217;50.422;7.210;2023-04-25T00:17:56;5.50;99.90
56308;DHT22;42217;50.422;7.210;2023-04-25T00:20:22;5.50;99.90
56308;DHT22;42217;50.422;7.210;2023-04-25T00:22:49;5.60;99.90
56308;DHT22;42217;50.422;7.210;2023-04-25T00:25:15;5.70;99.90
56308;DHT22;42217;50.422;7.210;2023-04-25T00:27:40;5.70;99.90
56308;DHT22;42217;50.422;7.210;2023-04-25T00:30:07;5.70;99.90
56308;DHT22;42217;50.422;7.210;2023-04-25T00:32:33;5.60;99.90
56308;DHT22;42217;50.422;7.210;2023-04-25T00:34:59;5.60;99.90
56308;DHT22;42217;50.422;7.210;2023-04-25T00:37:25;5.50;99.90
56308;DHT22;42217;50.422;7.210;2023-04-25T00:39:51;5.50;99.90
56308;DHT22;42217;50.422;7.210;2023-04-25T00:42:19;5.40;99.90
56308;DHT22;42217;50.422;7.210;2023-04-25T00:44:45;5.30;99.90
56308;DHT22;42217;50.422;7.210;2023-04-25T00:47:11;5.30;99.90
56308;DHT22;42217;50.422;7.210;2023-04-25T00:49:37;5.20;99.90
56308;DHT22;42217;50.422;7.210;2023-04-25T00:52:03;5.30;99.90
56308;DHT22;42217;50.422;7.210;2023-04-25T00:54:29;5.30;99.90
56308;DHT22;42217;50.422;7.210;2023-04-25T00:56:56;5.30;99.90
56308;DHT22;42217;50.422;7.210;2023-04-25T00:59:22;5.30;99.90
56308;DHT22;42217;50.422;7.210;2023-04-25T01:01:48;5.30;99.90
56308;DHT22;42217;50.422;7.210;2023-04-25T01:04:14;5.30;99.90
56308;DHT22;42217;50.422;7.210;2023-04-25T01:06:40;5.20;99.90
56308;DHT22;42217;50.422;7.210;2023-04-25T01:09:06;5.20;99.90
56308;DHT22;42217;50.422;7.210;2023-04-25T01:11:32;5.10;99.90
56308;DHT22;42217;50.422;7.210;2023-04-25T01:13:58;5.00;99.90
56308;DHT22;42217;50.422;7.210;2023-04-25T01:16:24;5.00;99.90
56308;DHT22;42217;50.422;7.210;2023-04-25T01:18:50;5.00;99.90
56308;DHT22;42217;50.422;7.210;2023-04-25T01:21:17;5.00;99.90
56308;DHT22;42217;50.422;7.210;2023-04-25T01:23:43;5.10;99.90
56308;DHT22;42217;50.422;7.210;2023-04-25T01:26:10;5.10;99.90
56308;DHT22;42217;50.422;7.210;2023-04-25T01:28:37;5.10;99.90
56308;DHT22;42217;50.422;7.210;2023-04-25T01:31:04;5.00;99.90
56308;DHT22;42217;50.422;7.210;2023-04-25T01:33:31;4.90;99.90
56308;DHT22;42217;50.422;7.210;2023-04-25T01:35:57;4.70;99.90
56308;DHT22;42217;50.422;7.210;2023-04-25T01:38:23;4.50;99.90
56308;DHT22;42217;50.422;7.210;2023-04-25T01:40:50;4.30;99.90
56308;DHT22;42217;50.422;7.210;2023-04-25T01:43:16;4.30;99.90
56308;DHT22;42217;50.422;7.210;2023-04-25T01:45:42;4.10;99.90
56308;DHT22;42217;50.422;7.210;2023-04-25T01:48:12;4.10;99.90
56308;DHT22;42217;50.422;7.210;2023-04-25T01:50:39;3.90;99.90
56308;DHT22;42217;50.422;7.210;2023-04-25T01:53:05;3.80;99.90
56308;DHT22;42217;50.422;7.210;2023-04-25T01:55:31;3.80;99.90
56308;DHT22;42217;50.422;7.210;2023-04-25T01:57:58;3.70;99.90
56308;DHT22;42217;50.422;7.210;2023-04-25T02:00:25;3.80;99.90
56308;DHT22;42217;50.422;7.210;2023-04-25T02:02:51;3.80;99.90
56308;DHT22;42217;50.422;7.210;2023-04-25T02:05:19;3.80;99.90
56308;DHT22;42217;50.422;7.210;2023-04-25T02:07:47;3.80;99.90
56308;DHT22;42217;50.422;7.210;2023-04-25T02:10:13;3.80;99.90
56308;DHT22;42217;50.422;7.210;2023-04-25T02:12:39;3.70;99.90
56308;DHT22;42217;50.422;7.210;2023-04-25T02:15:05;3.70;99.90
56308;DHT22;42217;50.422;7.210;2023-04-25T02:17:31;3.90;99.90
56308;DHT22;42217;50.422;7.210;2023-04-25T02:19:57;3.90;99.90
56308;DHT22;42217;50.422;7.210;2023-04-25T02:22:23;3.90;99.90
56308;DHT22;42217;50.422;7.210;2023-04-25T02:24:49;3.80;99.90
56308;DHT22;42217;50.422;7.210;2023-04-25T02:27:15;3.70;99.90
56308;DHT22;42217;50.422;7.210;2023-04-25T02:29:40;3.60;99.90
56308;DHT22;42217;50.422;7.210;2023-04-25T02:32:06;3.60;99.90
56308;DHT22;42217;50.422;7.210;2023-04-25T02:34:32;3.60;99.90
56308;DHT22;42217;50.422;7.210;2023-04-25T02:36:57;3.60;99.90
56308;DHT22;42217;50.422;7.210;2023-04-25T02:39:23;3.70;99.90
56308;DHT22;42217;50.422;7.210;2023-04-25T02:41:51;3.70;99.90
56308;DHT22;42217;50.422;7.210;2023-04-25T02:44:17;3.70;99.90
56308;DHT22;42217;50.422;7.210;2023-04-25T02:46:42;3.70;99.90
56308;DHT22;42217;50.422;7.210;2023-04-25T02:49:08;3.60;99.90
56308;DHT22;42217;50.422;7.210;2023-04-25T02:51:33;3.80;99.90
56308;DHT22;42217;50.422;7.210;2023-04-25T02:53:59;3.70;99.90
56308;DHT22;42217;50.422;7.210;2023-04-25T02:56:25;3.50;99.90
56308;DHT22;42217;50.422;7.210;2023-04-25T02:58:51;3.50;99.90
56308;DHT22;42217;50.422;7.210;2023-04-25T03:01:17;3.50;99.90
56308;DHT22;42217;50.422;7.210;2023-04-25T03:03:43;3.70;99.90
56308;DHT22;42217;50.422;7.210;2023-04-25T03:06:08;3.80;99.90
56308;DHT22;42217;50.422;7.210;2023-04-25T03:08:34;3.90;99.90
56308;DHT22;42217;50.422;7.210;2023-04-25T03:11:00;3.90;99.90
56308;DHT22;42217;50.422;7.210;2023-04-25T03:13:26;3.70;99.90
56308;DHT22;42217;50.422;7.210;2023-04-25T03:15:52;3.60;99.90
56308;DHT22;42217;50.422;7.210;2023-04-25T03:18:18;3.70;99.90
56308;DHT22;42217;50.422;7.210;2023-04-25T03:20:44;3.80;99.90
56308;DHT22;42217;50.422;7.210;2023-04-25T03:23:10;3.80;99.90
56308;DHT22;42217;50.422;7.210;2023-04-25T03:25:35;3.80;99.90
56308;DHT22;42217;50.422;7.210;2023-04-25T03:28:01;3.90;99.90
56308;DHT22;42217;50.422;7.210;2023-04-25T03:30:26;4.10;99.90
56308;DHT22;42217;50.422;7.210;2023-04-25T03:32:52;4.10;99.90
56308;DHT22;42217;50.422;7.210;2023-04-25T03:35:18;4.10;99.90
56308;DHT22;42217;50.422;7.210;2023-04-25T03:37:43;4.10;99.90
56308;DHT22;42217;50.422;7.210;2023-04-25T03:40:12;4.10;99.90
56308;DHT22;42217;50.422;7.210;2023-04-25T03:42:37;4.20;99.90
56308;DHT22;42217;50.422;7.210;2023-04-25T03:45:04;4.40;99.90
56308;DHT22;42217;50.422;7.210;2023-04-25T03:47:30;4.30;99.90
56308;DHT22;42217;50.422;7.210;2023-04-25T03:49:55;4.40;99.90
56308;DHT22;42217;50.422;7.210;2023-04-25T03:52:21;4.50;99.90
56308;DHT22;42217;50.422;7.210;2023-04-25T03:54:47;4.60;99.90
56308;DHT22;42217;50.422;7.210;2023-04-25T03:57:12;4.50;99.90
56308;DHT22;42217;50.422;7.210;2023-04-25T03:59:38;4.40;99.90
56308;DHT22;42217;50.422;7.210;2023-04-25T04:02:04;4.40;99.90
56308;DHT22;42217;50.422;7.210;2023-04-25T04:04:29;4.40;99.90
56308;DHT22;42217;50.422;7.210;2023-04-25T04:06:55;4.40;99.90
56308;DHT22;42217;50.422;7.210;2023-04-25T04:09:21;4.50;99.90
56308;DHT22;42217;50.422;7.210;2023-04-25T04:11:47;4.60;99.90
56308;DHT22;42217;50.422;7.210;2023-04-25T04:14:13;4.70;99.90
56308;DHT22;42217;50.422;7.210;2023-04-25T04:16:38;4.70;99.90
56308;DHT22;42217;50.422;7.210;2023-04-25T04:19:05;4.80;99.90
56308;DHT22;42217;50.422;7.210;2023-04-25T04:21:31;5.00;99.90
56308;DHT22;42217;50.422;7.210;2023-04-25T04:23:57;5.00;99.90
56308;DHT22;42217;50.422;7.210;2023-04-25T04:26:25;5.10;99.90
56308;DHT22;42217;50.422;7.210;2023-04-25T04:28:52;5.10;99.90
56308;DHT22;42217;50.422;7.210;2023-04-25T04:31:22;5.10;99.90
56308;DHT22;42217;50.422;7.210;2023-04-25T04:33:49;5.10;99.90
56308;DHT22;42217;50.422;7.210;2023-04-25T04:36:15;5.00;99.90
56308;DHT22;42217;50.422;7.210;2023-04-25T04:38:41;5.10;99.90
56308;DHT22;42217;50.422;7.210;2023-04-25T04:41:07;5.20;99.90
56308;DHT22;42217;50.422;7.210;2023-04-25T04:43:33;5.20;99.90
56308;DHT22;42217;50.422;7.210;2023-04-25T04:46:02;5.20;99.90
56308;DHT22;42217;50.422;7.210;2023-04-25T04:48:30;5.20;99.90
56308;DHT22;42217;50.422;7.210;2023-04-25T04:50:58;5.30;99.90
56308;DHT22;42217;50.422;7.210;2023-04-25T04:53:24;5.20;99.90
56308;DHT22;42217;50.422;7.210;2023-04-25T04:55:49;5.20;99.90
56308;DHT22;42217;50.422;7.210;2023-04-25T04:58:15;5.30;99.90
56308;DHT22;42217;50.422;7.210;2023-04-25T05:00:41;5.20;99.90
56308;DHT22;42217;50.422;7.210;2023-04-25T05:03:07;5.20;99.90
56308;DHT22;42217;50.422;7.210;2023-04-25T05:05:32;5.30;99.90
56308;DHT22;42217;50.422;7.210;2023-04-25T05:07:58;5.30;99.90
56308;DHT22;42217;50.422;7.210;2023-04-25T05:10:25;5.30;99.90
56308;DHT22;42217;50.422;7.210;2023-04-25T05:12:51;5.30;99.90
56308;DHT22;42217;50.422;7.210;2023-04-25T05:15:17;5.40;99.90
56308;DHT22;42217;50.422;7.210;2023-04-25T05:17:42;5.30;99.90
56308;DHT22;42217;50.422;7.210;2023-04-25T05:20:08;5.40;99.90
56308;DHT22;42217;50.422;7.210;2023-04-25T05:22:35;5.40;99.90
56308;DHT22;42217;50.422;7.210;2023-04-25T05:25:01;5.40;99.90
56308;DHT22;42217;50.422;7.210;2023-04-25T05:27:26;5.50;99.90
56308;DHT22;42217;50.422;7.210;2023-04-25T05:29:52;5.60;99.90
56308;DHT22;42217;50.422;7.210;2023-04-25T05:32:18;5.60;99.90
56308;DHT22;42217;50.422;7.210;2023-04-25T05:34:43;5.70;99.90
56308;DHT22;42217;50.422;7.210;2023-04-25T05:37:09;5.80;99.90
56308;DHT22;42217;50.422;7.210;2023-04-25T05:39:35;5.80;99.90
56308;DHT22;42217;50.422;7.210;2023-04-25T05:42:01;5.90;99.90
56308;DHT22;42217;50.422;7.210;2023-04-25T05:44:27;6.00;99.90
56308;DHT22;42217;50.422;7.210;2023-04-25T05:46:53;6.00;99.90
56308;DHT22;42217;50.422;7.210;2023-04-25T05:49:19;6.10;99.90
56308;DHT22;42217;50.422;7.210;2023-04-25T05:51:45;6.20;99.90
56308;DHT22;42217;50.422;7.210;2023-04-25T05:54:10;6.20;99.90
56308;DHT22;42217;50.422;7.210;2023-04-25T05:56:36;6.20;99.90
56308;DHT22;42217;50.422;7.210;2023-04-25T05:59:02;6.10;99.90
56308;DHT22;42217;50.422;7.210;2023-04-25T06:01:28;6.00;99.90
56308;DHT22;42217;50.422;7.210;2023-04-25T06:03:54;6.00;99.90
56308;DHT22;42217;50.422;7.210;2023-04-25T06:06:19;6.00;99.90
56308;DHT22;42217;50.422;7.210;2023-04-25T06:08:45;6.00;99.90
56308;DHT22;42217;50.422;7.210;2023-04-25T06:11:11;6.10;99.90
56308;DHT22;42217;50.422;7.210;2023-04-25T06:13:37;6.20;99.90
56308;DHT22;42217;50.422;7.210;2023-04-25T06:16:02;6.20;99.90
56308;DHT22;42217;50.422;7.210;2023-04-25T06:18:28;6.20;99.90
56308;DHT22;42217;50.422;7.210;2023-04-25T06:20:54;6.20;99.90
56308;DHT22;42217;50.422;7.210;2023-04-25T06:23:19;6.30;99.90
56308;DHT22;42217;50.422;7.210;2023-04-25T06:25:45;6.30;99.90
56308;DHT22;42217;50.422;7.210;2023-04-25T06:28:11;6.30;99.90
56308;DHT22;42217;50.422;7.210;2023-04-25T06:30:37;6.30;99.90
56308;DHT22;42217;50.422;7.210;2023-04-25T06:33:03;6.30;99.90
56308;DHT22;42217;50.422;7.210;2023-04-25T06:35:28;6.20;99.90
56308;DHT22;42217;50.422;7.210;2023-04-25T06:37:54;6.10;99.90
56308;DHT22;42217;50.422;7.210;2023-04-25T06:40:20;6.10;99.90
56308;DHT22;42217;50.422;7.210;2023-04-25T06:42:45;6.20;99.90
56308;DHT22;42217;50.422;7.210;2023-04-25T06:45:11;6.10;99.90
56308;DHT22;42217;50.422;7.210;2023-04-25T06:47:37;6.20;99.90
56308;DHT22;42217;50.422;7.210;2023-04-25T06:50:03;6.30;99.90
56308;DHT22;42217;50.422;7.210;2023-04-25T06:52:29;6.30;99.90
56308;DHT22;42217;50.422;7.210;2023-04-25T06:54:54;6.50;99.90
56308;DHT22;42217;50.422;7.210;2023-04-25T06:57:20;6.60;99.90
56308;DHT22;42217;50.422;7.210;2023-04-25T06:59:45;6.80;99.90
56308;DHT22;42217;50.422;7.210;2023-04-25T07:02:11;7.00;99.90
56308;DHT22;42217;50.422;7.210;2023-04-25T07:04:37;7.20;99.90
56308;DHT22;42217;50.422;7.210;2023-04-25T07:07:02;7.30;99.90
56308;DHT22;42217;50.422;7.210;2023-04-25T07:09:29;7.40;99.90
56308;DHT22;42217;50.422;7.210;2023-04-25T07:11:55;7.30;99.90
56308;DHT22;42217;50.422;7.210;2023-04-25T07:14:21;7.40;99.90
56308;DHT22;42217;50.422;7.210;2023-04-25T07:16:47;7.40;99.90
56308;DHT22;42217;50.422;7.210;2023-04-25T07:19:13;7.40;99.90
56308;DHT22;42217;50.422;7.210;2023-04-25T07:21:39;7.10;99.90
56308;DHT22;42217;50.422;7.210;2023-04-25T07:24:05;6.80;99.90
56308;DHT22;42217;50.422;7.210;2023-04-25T07:26:30;6.70;99.90
56308;DHT22;42217;50.422;7.210;2023-04-25T07:28:56;6.80;99.90
56308;DHT22;42217;50.422;7.210;2023-04-25T07:31:22;6.90;99.90
56308;DHT22;42217;50.422;7.210;2023-04-25T07:33:48;7.10;99.90
56308;DHT22;42217;50.422;7.210;2023-04-25T07:36:14;7.50;99.90
56308;DHT22;42217;50.422;7.210;2023-04-25T07:38:40;7.90;99.90
56308;DHT22;42217;50.422;7.210;2023-04-25T07:41:06;8.20;99.90
56308;DHT22;42217;50.422;7.210;2023-04-25T07:43:32;8.20;99.90
56308;DHT22;42217;50.422;7.210;2023-04-25T07:45:58;8.30;99.90
56308;DHT22;42217;50.422;7.210;2023-04-25T07:48:23;8.50;99.90
56308;DHT22;42217;50.422;7.210;2023-04-25T07:50:49;8.30;98.70
56308;DHT22;42217;50.422;7.210;2023-04-25T07:53:16;8.00;99.80
56308;DHT22;42217;50.422;7.210;2023-04-25T07:55:43;7.60;99.90
56308;DHT22;42217;50.422;7.210;2023-04-25T07:58:09;7.50;99.90
56308;DHT22;42217;50.422;7.210;2023-04-25T08:00:35;7.50;99.90
56308;DHT22;42217;50.422;7.210;2023-04-25T08:03:01;7.50;99.90
56308;DHT22;42217;50.422;7.210;2023-04-25T08:05:28;7.40;99.90
56308;DHT22;42217;50.422;7.210;2023-04-25T08:07:54;7.50;99.90
56308;DHT22;42217;50.422;7.210;2023-04-25T08:10:19;7.80;99.10
56308;DHT22;42217;50.422;7.210;2023-04-25T08:12:46;8.20;91.20
56308;DHT22;42217;50.422;7.210;2023-04-25T08:15:12;8.60;91.50
56308;DHT22;42217;50.422;7.210;2023-04-25T08:17:39;8.50;80.60
56308;DHT22;42217;50.422;7.210;2023-04-25T08:20:05;8.40;75.90
56308;DHT22;42217;50.422;7.210;2023-04-25T08:22:31;8.50;64.70
56308;DHT22;42217;50.422;7.210;2023-04-25T08:24:57;8.60;68.40
56308;DHT22;42217;50.422;7.210;2023-04-25T08:27:23;8.50;66.00
56308;DHT22;42217;50.422;7.210;2023-04-25T08:29:49;8.50;56.20
56308;DHT22;42217;50.422;7.210;2023-04-25T08:32:16;8.60;57.20
56308;DHT22;42217;50.422;7.210;2023-04-25T08:34:41;8.70;43.00
56308;DHT22;42217;50.422;7.210;2023-04-25T08:37:09;8.70;52.30
56308;DHT22;42217;50.422;7.210;2023-04-25T08:39:38;8.50;51.80
56308;DHT22;42217;50.422;7.210;2023-04-25T08:42:06;8.50;57.60
56308;DHT22;42217;50.422;7.210;2023-04-25T08:44:34;9.00;40.70
56308;DHT22;42217;50.422;7.210;2023-04-25T08:47:03;9.20;21.60
56308;DHT22;42217;50.422;7.210;2023-04-25T08:49:32;8.80;28.00
56308;DHT22;42217;50.422;7.210;2023-04-25T08:52:01;8.70;26.60
56308;DHT22;42217;50.422;7.210;2023-04-25T08:54:28;8.40;25.10
56308;DHT22;42217;50.422;7.210;2023-04-25T08:56:54;8.00;29.40
56308;DHT22;42217;50.422;7.210;2023-04-25T08:59:21;7.90;45.40
56308;DHT22;42217;50.422;7.210;2023-04-25T09:01:49;7.90;55.50
56308;DHT22;42217;50.422;7.210;2023-04-25T09:04:15;7.80;48.20
56308;DHT22;42217;50.422;7.210;2023-04-25T09:06:41;7.80;35.40
56308;DHT22;42217;50.422;7.210;2023-04-25T09:09:08;7.70;58.50
56308;DHT22;42217;50.422;7.210;2023-04-25T09:11:36;7.90;37.90
56308;DHT22;42217;50.422;7.210;2023-04-25T09:14:14;8.10;33.90
56308;DHT22;42217;50.422;7.210;2023-04-25T09:17:00;8.30;26.40
56308;DHT22;42217;50.422;7.210;2023-04-25T09:19:29;8.40;2.70
56308;DHT22;42217;50.422;7.210;2023-04-25T09:22:00;8.50;1.00
56308;DHT22;42217;50.422;7.210;2023-04-25T09:24:40;8.70;1.00
56308;DHT22;42217;50.422;7.210;2023-04-25T09:27:08;8.80;1.00
56308;DHT22;42217;50.422;7.210;2023-04-25T09:29:37;8.80;1.00
56308;DHT22;42217;50.422;7.210;2023-04-25T09:34:42;8.90;1.00
56308;DHT22;42217;50.422;7.210;2023-04-25T09:37:11;9.10;1.00
56308;DHT22;42217;50.422;7.210;2023-04-25T09:39:38;9.50;1.00
56308;DHT22;42217;50.422;7.210;2023-04-25T09:42:05;9.70;99.90
56308;DHT22;42217;50.422;7.210;2023-04-25T09:44:31;9.50;1.00
56308;DHT22;42217;50.422;7.210;2023-04-25T09:46:56;9.20;1.00
56308;DHT22;42217;50.422;7.210;2023-04-25T09:49:23;9.00;1.00
56308;DHT22;42217;50.422;7.210;2023-04-25T09:51:59;9.00;1.00
56308;DHT22;42217;50.422;7.210;2023-04-25T09:54:26;9.30;1.00
56308;DHT22;42217;50.422;7.210;2023-04-25T09:56:53;9.70;1.00
56308;DHT22;42217;50.422;7.210;2023-04-25T09:59:22;9.80;1.00
56308;DHT22;42217;50.422;7.210;2023-04-25T10:01:49;9.70;1.70
56308;DHT22;42217;50.422;7.210;2023-04-25T10:04:25;10.20;1.00
56308;DHT22;42217;50.422;7.210;2023-04-25T10:06:54;10.70;1.00
56308;DHT22;42217;50.422;7.210;2023-04-25T10:09:21;10.90;1.00
56308;DHT22;42217;50.422;7.210;2023-04-25T10:11:48;11.00;99.90
56308;DHT22;42217;50.422;7.210;2023-04-25T10:14:16;10.70;99.90
56308;DHT22;42217;50.422;7.210;2023-04-25T10:16:42;10.60;99.90
56308;DHT22;42217;50.422;7.210;2023-04-25T10:19:09;10.70;99.90
56308;DHT22;42217;50.422;7.210;2023-04-25T10:21:42;10.80;99.90
56308;DHT22;42217;50.422;7.210;2023-04-25T10:24:09;10.70;1.00
56308;DHT22;42217;50.422;7.210;2023-04-25T10:26:36;10.20;1.00
56308;DHT22;42217;50.422;7.210;2023-04-25T10:29:03;9.90;99.90
56308;DHT22;42217;50.422;7.210;2023-04-25T10:31:32;9.70;99.90
56308;DHT22;42217;50.422;7.210;2023-04-25T10:34:00;9.60;1.00
56308;DHT22;42217;50.422;7.210;2023-04-25T10:36:31;9.80;1.00
56308;DHT22;42217;50.422;7.210;2023-04-25T10:39:05;9.50;18.10
56308;DHT22;42217;50.422;7.210;2023-04-25T10:41:46;9.60;98.80
56308;DHT22;42217;50.422;7.210;2023-04-25T10:44:12;9.70;99.90
56308;DHT22;42217;50.422;7.210;2023-04-25T10:46:38;9.70;99.90
56308;DHT22;42217;50.422;7.210;2023-04-25T10:49:04;9.80;99.90
56308;DHT22;42217;50.422;7.210;2023-04-25T10:51:34;10.10;99.90
56308;DHT22;42217;50.422;7.210;2023-04-25T10:54:07;10.10;99.90
56308;DHT22;42217;50.422;7.210;2023-04-25T10:59:13;9.90;99.90
56308;DHT22;42217;50.422;7.210;2023-04-25T11:01:51;9.50;1.00
56308;DHT22;42217;50.422;7.210;2023-04-25T11:09:38;9.80;99.90
56308;DHT22;42217;50.422;7.210;2023-04-25T11:12:04;10.10;99.90
56308;DHT22;42217;50.422;7.210;2023-04-25T11:14:30;10.50;99.90
56308;DHT22;42217;50.422;7.210;2023-04-25T11:16:59;11.00;99.90
56308;DHT22;42217;50.422;7.210;2023-04-25T11:19:26;11.00;1.10
56308;DHT22;42217;50.422;7.210;2023-04-25T11:22:00;11.10;99.90
56308;DHT22;42217;50.422;7.210;2023-04-25T11:24:34;10.70;99.90
56308;DHT22;42217;50.422;7.210;2023-04-25T11:27:01;10.20;99.90
56308;DHT22;42217;50.422;7.210;2023-04-25T11:29:31;10.50;99.90
56308;DHT22;42217;50.422;7.210;2023-04-25T11:31:57;11.00;1.00
56308;DHT22;42217;50.422;7.210;2023-04-25T11:34:24;11.20;99.90
56308;DHT22;42217;50.422;7.210;2023-04-25T11:36:50;11.40;99.90
56308;DHT22;42217;50.422;7.210;2023-04-25T11:39:21;11.40;98.60
56308;DHT22;42217;50.422;7.210;2023-04-25T11:41:47;11.00;99.90
56308;DHT22;42217;50.422;7.210;2023-04-25T11:44:16;10.40;1.00
56308;DHT22;42217;50.422;7.210;2023-04-25T11:46:42;10.30;1.00
56308;DHT22;42217;50.422;7.210;2023-04-25T11:49:08;10.30;94.30
56308;DHT22;42217;50.422;7.210;2023-04-25T11:51:46;10.40;30.00
56308;DHT22;42217;50.422;7.210;2023-04-25T11:54:12;10.70;99.90
56308;DHT22;42217;50.422;7.210;2023-04-25T11:56:45;10.90;99.90
56308;DHT22;42217;50.422;7.210;2023-04-25T11:59:11;10.80;99.90
56308;DHT22;42217;50.422;7.210;2023-04-25T12:01:39;10.90;76.60
56308;DHT22;42217;50.422;7.210;2023-04-25T12:04:15;10.90;99.90
56308;DHT22;42217;50.422;7.210;2023-04-25T12:06:43;10.70;1.00
56308;DHT22;42217;50.422;7.210;2023-04-25T12:09:11;10.70;99.90
56308;DHT22;42217;50.422;7.210;2023-04-25T12:11:42;10.90;94.10
56308;DHT22;42217;50.422;7.210;2023-04-25T12:14:09;11.00;99.90
56308;DHT22;42217;50.422;7.210;2023-04-25T12:16:46;11.10;99.90
56308;DHT22;42217;50.422;7.210;2023-04-25T12:19:20;11.20;99.90
56308;DHT22;42217;50.422;7.210;2023-04-25T12:21:47;11.30;99.90
56308;DHT22;42217;50.422;7.210;2023-04-25T12:24:23;11.20;99.90
56308;DHT22;42217;50.422;7.210;2023-04-25T12:27:02;11.00;99.90
56308;DHT22;42217;50.422;7.210;2023-04-25T12:29:32;11.30;63.60
56308;DHT22;42217;50.422;7.210;2023-04-25T12:31:59;11.10;1.00
56308;DHT22;42217;50.422;7.210;2023-04-25T12:34:25;11.20;99.90
56308;DHT22;42217;50.422;7.210;2023-04-25T12:36:52;11.40;99.90
56308;DHT22;42217;50.422;7.210;2023-04-25T12:39:19;11.20;1.00
56308;DHT22;42217;50.422;7.210;2023-04-25T12:41:46;10.90;1.00
56308;DHT22;42217;50.422;7.210;2023-04-25T12:44:12;10.40;32.40
56308;DHT22;42217;50.422;7.210;2023-04-25T12:46:38;10.00;99.90
56308;DHT22;42217;50.422;7.210;2023-04-25T12:49:05;9.70;1.00
56308;DHT22;42217;50.422;7.210;2023-04-25T12:51:32;9.40;53.30
56308;DHT22;42217;50.422;7.210;2023-04-25T12:53:59;9.30;99.90
56308;DHT22;42217;50.422;7.210;2023-04-25T12:56:26;9.40;99.90
56308;DHT22;42217;50.422;7.210;2023-04-25T12:58:52;9.60;99.90
56308;DHT22;42217;50.422;7.210;2023-04-25T13:01:18;9.70;99.90
56308;DHT22;42217;50.422;7.210;2023-04-25T13:03:44;9.70;99.90
56308;DHT22;42217;50.422;7.210;2023-04-25T13:06:10;9.90;99.90
56308;DHT22;42217;50.422;7.210;2023-04-25T13:08:36;10.10;99.90
56308;DHT22;42217;50.422;7.210;2023-04-25T13:11:04;10.80;99.90
56308;DHT22;42217;50.422;7.210;2023-04-25T13:13:30;11.50;99.90
56308;DHT22;42217;50.422;7.210;2023-04-25T13:15:57;11.10;1.00
56308;DHT22;42217;50.422;7.210;2023-04-25T13:18:23;10.40;1.00
56308;DHT22;42217;50.422;7.210;2023-04-25T13:20:52;9.80;1.00
56308;DHT22;42217;50.422;7.210;2023-04-25T13:23:18;9.40;1.00
56308;DHT22;42217;50.422;7.210;2023-04-25T13:25:44;9.00;1.00
56308;DHT22;42217;50.422;7.210;2023-04-25T13:28:10;8.70;1.00
56308;DHT22;42217;50.422;7.210;2023-04-25T13:30:36;8.60;19.70
56308;DHT22;42217;50.422;7.210;2023-04-25T13:33:02;8.80;1.00
56308;DHT22;42217;50.422;7.210;2023-04-25T13:35:30;9.00;1.00
56308;DHT22;42217;50.422;7.210;2023-04-25T13:37:56;9.10;1.00
56308;DHT22;42217;50.422;7.210;2023-04-25T13:40:22;9.20;1.00
56308;DHT22;42217;50.422;7.210;2023-04-25T13:42:47;9.30;1.00
56308;DHT22;42217;50.422;7.210;2023-04-25T13:45:13;9.30;1.00
56308;DHT22;42217;50.422;7.210;2023-04-25T13:47:39;9.40;1.00
56308;DHT22;42217;50.422;7.210;2023-04-25T13:50:05;9.40;1.00
56308;DHT22;42217;50.422;7.210;2023-04-25T13:52:31;9.40;1.00
56308;DHT22;42217;50.422;7.210;2023-04-25T13:54:57;9.40;1.00
56308;DHT22;42217;50.422;7.210;2023-04-25T13:57:23;9.50;1.00
56308;DHT22;42217;50.422;7.210;2023-04-25T13:59:49;9.80;1.00
56308;DHT22;42217;50.422;7.210;2023-04-25T14:02:15;10.00;1.00
56308;DHT22;42217;50.422;7.210;2023-04-25T14:04:42;10.20;99.90
56308;DHT22;42217;50.422;7.210;2023-04-25T14:07:08;10.00;99.90
56308;DHT22;42217;50.422;7.210;2023-04-25T14:09:34;9.80;99.90
56308;DHT22;42217;50.422;7.210;2023-04-25T14:11:59;9.80;99.90
56308;DHT22;42217;50.422;7.210;2023-04-25T14:14:26;9.80;99.90
56308;DHT22;42217;50.422;7.210;2023-04-25T14:16:52;9.80;99.90
56308;DHT22;42217;50.422;7.210;2023-04-25T14:19:20;9.80;99.90
56308;DHT22;42217;50.422;7.210;2023-04-25T14:21:46;9.50;99.90
56308;DHT22;42217;50.422;7.210;2023-04-25T14:24:12;9.60;99.90
56308;DHT22;42217;50.422;7.210;2023-04-25T14:26:38;9.80;99.90
56308;DHT22;42217;50.422;7.210;2023-04-25T14:29:05;9.90;99.90
56308;DHT22;42217;50.422;7.210;2023-04-25T14:31:34;10.00;99.90
56308;DHT22;42217;50.422;7.210;2023-04-25T14:34:01;10.00;99.90
56308;DHT22;42217;50.422;7.210;2023-04-25T14:36:30;10.30;99.90
56308;DHT22;42217;50.422;7.210;2023-04-25T14:38:57;10.70;99.90
56308;DHT22;42217;50.422;7.210;2023-04-25T14:41:27;10.80;99.90
56308;DHT22;42217;50.422;7.210;2023-04-25T14:43:53;11.10;1.00
56308;DHT22;42217;50.422;7.210;2023-04-25T14:46:19;11.30;39.60
56308;DHT22;42217;50.422;7.210;2023-04-25T14:48:45;11.30;1.00
56308;DHT22;42217;50.422;7.210;2023-04-25T14:51:12;11.00;1.00
56308;DHT22;42217;50.422;7.210;2023-04-25T14:53:39;10.70;99.90
56308;DHT22;42217;50.422;7.210;2023-04-25T14:56:05;10.10;99.90
56308;DHT22;42217;50.422;7.210;2023-04-25T14:58:31;9.80;1.00
56308;DHT22;42217;50.422;7.210;2023-04-25T15:00:57;9.50;1.00
56308;DHT22;42217;50.422;7.210;2023-04-25T15:03:22;9.40;1.00
56308;DHT22;42217;50.422;7.210;2023-04-25T15:05:48;9.60;1.00
56308;DHT22;42217;50.422;7.210;2023-04-25T15:08:14;9.80;1.00
56308;DHT22;42217;50.422;7.210;2023-04-25T15:10:39;10.10;1.00
56308;DHT22;42217;50.422;7.210;2023-04-25T15:13:05;10.80;99.90
56308;DHT22;42217;50.422;7.210;2023-04-25T15:15:31;11.60;92.70
56308;DHT22;42217;50.422;7.210;2023-04-25T15:17:57;12.10;55.00
56308;DHT22;42217;50.422;7.210;2023-04-25T15:20:23;11.90;52.50
56308;DHT22;42217;50.422;7.210;2023-04-25T15:22:48;12.60;99.90
56308;DHT22;42217;50.422;7.210;2023-04-25T15:25:15;14.30;99.90
56308;DHT22;42217;50.422;7.210;2023-04-25T15:27:43;15.30;1.00
56308;DHT22;42217;50.422;7.210;2023-04-25T15:30:11;15.10;36.10
56308;DHT22;42217;50.422;7.210;2023-04-25T15:32:38;14.90;26.10
56308;DHT22;42217;50.422;7.210;2023-04-25T15:35:05;15.40;1.00
56308;DHT22;42217;50.422;7.210;2023-04-25T15:37:35;16.00;99.90
56308;DHT22;42217;50.422;7.210;2023-04-25T15:40:08;15.70;99.90
56308;DHT22;42217;50.422;7.210;2023-04-25T15:42:41;15.40;99.90
56308;DHT22;42217;50.422;7.210;2023-04-25T15:45:09;14.80;99.90
56308;DHT22;42217;50.422;7.210;2023-04-25T15:47:36;14.00;99.90
56308;DHT22;42217;50.422;7.210;2023-04-25T15:50:03;13.20;1.00
56308;DHT22;42217;50.422;7.210;2023-04-25T15:52:29;12.20;99.90